sensor_id;sensor_type;location;lat;lon;timestamp;pressure;altitude;pressure_sealevel;temperature;humidity
36692;BME280;22678;52.052;4.242;2023-08-07T00:01:00;101410.00;;;14.96;72.63
36692;BME280;22678;52.052;4.242;2023-08-07T00:03:25;101466.00;;;15.27;72.88
36692;BME280;22678;52.052;4.242;2023-08-07T00:05:50;101472.13;;;15.29;73.10
36692;BME280;22678;52.052;4.242;2023-08-07T00:08:20;101458.97;;;15.24;73.29
36692;BME280;22678;52.052;4.242;2023-08-07T00:10:45;101485.16;;;15.43;73.45
36692;BME280;22678;52.052;4.242;2023-08-07T00:13:11;101468.56;;;15.32;73.64
36692;BME280;22678;52.052;4.242;2023-08-07T00:15:39;101489.59;;;15.41;73.30
36692;BME280;22678;52.052;4.242;2023-08-07T00:18:04;101465.97;;;15.29;73.16
36692;BME280;22678;52.052;4.242;2023-08-07T00:20:30;101477.34;;;15.34;72.79
36692;BME280;22678;52.052;4.242;2023-08-07T00:22:55;101468.63;;;15.29;72.66
36692;BME280;22678;52.052;4.242;2023-08-07T00:25:20;101457.25;;;15.20;72.74
36692;BME280;22678;52.052;4.242;2023-08-07T00:27:46;101497.66;;;15.35;71.93
36692;BME280;22678;52.052;4.242;2023-08-07T00:30:11;101480.00;;;15.34;71.55
36692;BME280;22678;52.052;4.242;2023-08-07T00:32:37;101487.16;;;15.29;71.18
36692;BME280;22678;52.052;4.242;2023-08-07T00:35:02;101486.22;;;15.33;70.42
36692;BME280;22678;52.052;4.242;2023-08-07T00:37:29;101472.25;;;15.23;70.69
36692;BME280;22678;52.052;4.242;2023-08-07T00:39:55;101414.59;;;14.86;70.92
36692;BME280;22678;52.052;4.242;2023-08-07T00:42:20;101487.16;;;15.29;71.15
36692;BME280;22678;52.052;4.242;2023-08-07T00:44:45;101499.38;;;15.37;71.46
36692;BME280;22678;52.052;4.242;2023-08-07T00:47:11;101486.28;;;15.27;71.65
36692;BME280;22678;52.052;4.242;2023-08-07T00:49:36;101503.78;;;15.37;71.01
36692;BME280;22678;52.052;4.242;2023-08-07T00:52:02;101496.91;;;15.27;70.88
36692;BME280;22678;52.052;4.242;2023-08-07T00:54:28;101508.25;;;15.35;70.96
36692;BME280;22678;52.052;4.242;2023-08-07T00:56:53;101438.34;;;14.91;70.95
36692;BME280;22678;52.052;4.242;2023-08-07T00:59:19;101485.47;;;15.24;70.44
36692;BME280;22678;52.052;4.242;2023-08-07T01:01:45;101496.13;;;15.21;70.51
36692;BME280;22678;52.052;4.242;2023-08-07T01:04:10;101430.56;;;14.83;70.32
36692;BME280;22678;52.052;4.242;2023-08-07T01:06:35;101483.94;;;15.11;70.24
36692;BME280;22678;52.052;4.242;2023-08-07T01:09:01;101511.91;;;15.28;70.36
36692;BME280;22678;52.052;4.242;2023-08-07T01:17:08;101509.41;;;15.18;70.11
36692;BME280;22678;52.052;4.242;2023-08-07T01:19:35;101499.78;;;15.13;69.87
36692;BME280;22678;52.052;4.242;2023-08-07T01:22:17;101497.06;;;15.17;70.11
36692;BME280;22678;52.052;4.242;2023-08-07T01:24:48;101497.94;;;15.16;70.36
36692;BME280;22678;52.052;4.242;2023-08-07T01:32:21;101502.28;;;15.22;70.95
36692;BME280;22678;52.052;4.242;2023-08-07T01:34:49;101500.72;;;15.09;70.69
36692;BME280;22678;52.052;4.242;2023-08-07T01:37:16;101442.97;;;14.78;70.43
36692;BME280;22678;52.052;4.242;2023-08-07T01:39:42;101490.16;;;15.07;70.25
36692;BME280;22678;52.052;4.242;2023-08-07T01:42:09;101481.28;;;15.11;70.32
36692;BME280;22678;52.052;4.242;2023-08-07T01:44:36;101487.56;;;15.04;70.21
36692;BME280;22678;52.052;4.242;2023-08-07T01:47:02;101490.94;;;15.15;70.15
36692;BME280;22678;52.052;4.242;2023-08-07T01:49:27;101499.75;;;15.16;70.12
36692;BME280;22678;52.052;4.242;2023-08-07T01:51:52;101504.16;;;15.17;70.43
36692;BME280;22678;52.052;4.242;2023-08-07T01:54:18;101501.53;;;15.15;70.95
36692;BME280;22678;52.052;4.242;2023-08-07T01:56:43;101504.13;;;15.18;71.43
36692;BME280;22678;52.052;4.242;2023-08-07T01:59:08;101506.66;;;15.24;71.50
36692;BME280;22678;52.052;4.242;2023-08-07T02:01:33;101501.63;;;15.09;71.70
36692;BME280;22678;52.052;4.242;2023-08-07T02:03:59;101512.19;;;15.12;71.49
36692;BME280;22678;52.052;4.242;2023-08-07T02:06:24;101507.69;;;15.16;71.37
36692;BME280;22678;52.052;4.242;2023-08-07T02:08:49;101523.47;;;15.22;70.98
36692;BME280;22678;52.052;4.242;2023-08-07T02:11:15;101502.56;;;15.06;70.92
36692;BME280;22678;52.052;4.242;2023-08-07T02:13:40;101516.47;;;15.18;71.02
36692;BME280;22678;52.052;4.242;2023-08-07T02:16:05;101508.66;;;15.10;70.78
36692;BME280;22678;52.052;4.242;2023-08-07T02:18:31;101513.91;;;15.13;70.77
36692;BME280;22678;52.052;4.242;2023-08-07T02:20:56;101521.78;;;15.19;71.04
36692;BME280;22678;52.052;4.242;2023-08-07T02:23:21;101488.44;;;15.04;71.07
36692;BME280;22678;52.052;4.242;2023-08-07T02:25:48;101523.53;;;15.19;71.10
36692;BME280;22678;52.052;4.242;2023-08-07T02:28:13;101520.03;;;15.17;70.95
36692;BME280;22678;52.052;4.242;2023-08-07T02:30:39;101533.22;;;15.21;71.34
36692;BME280;22678;52.052;4.242;2023-08-07T02:33:04;101522.59;;;15.23;71.25
36692;BME280;22678;52.052;4.242;2023-08-07T02:35:29;101508.59;;;15.13;70.93
36692;BME280;22678;52.052;4.242;2023-08-07T02:37:55;101511.19;;;15.16;70.73
36692;BME280;22678;52.052;4.242;2023-08-07T02:40:20;101511.19;;;15.16;70.83
36692;BME280;22678;52.052;4.242;2023-08-07T02:42:45;101434.31;;;14.69;70.88
36692;BME280;22678;52.052;4.242;2023-08-07T02:45:11;101514.84;;;15.11;71.11
36692;BME280;22678;52.052;4.242;2023-08-07T02:47:36;101512.22;;;15.09;71.32
36692;BME280;22678;52.052;4.242;2023-08-07T02:50:01;101532.38;;;15.16;71.33
36692;BME280;22678;52.052;4.242;2023-08-07T02:52:27;101529.72;;;15.19;71.83
36692;BME280;22678;52.052;4.242;2023-08-07T02:54:52;101512.22;;;15.09;72.30
36692;BME280;22678;52.052;4.242;2023-08-07T02:57:18;101496.56;;;14.94;72.67
36692;BME280;22678;52.052;4.242;2023-08-07T02:59:44;101507.16;;;14.94;72.85
36692;BME280;22678;52.052;4.242;2023-08-07T03:02:09;101533.69;;;14.91;73.01
36692;BME280;22678;52.052;4.242;2023-08-07T03:04:34;101533.69;;;14.91;73.42
36692;BME280;22678;52.052;4.242;2023-08-07T03:07:00;101542.44;;;14.96;74.00
36692;BME280;22678;52.052;4.242;2023-08-07T03:09:25;101544.34;;;14.87;74.95
36692;BME280;22678;52.052;4.242;2023-08-07T03:11:50;101552.31;;;14.84;75.96
36692;BME280;22678;52.052;4.242;2023-08-07T03:14:16;101535.72;;;14.73;76.97
36692;BME280;22678;52.052;4.242;2023-08-07T03:16:41;101530.56;;;14.64;77.70
36692;BME280;22678;52.052;4.242;2023-08-07T03:19:06;101542.78;;;14.74;78.33
36692;BME280;22678;52.052;4.242;2023-08-07T03:21:32;101542.88;;;14.65;79.66
36692;BME280;22678;52.052;4.242;2023-08-07T03:23:57;101560.53;;;14.64;80.71
36692;BME280;22678;52.052;4.242;2023-08-07T03:26:23;101555.28;;;14.60;81.12
36692;BME280;22678;52.052;4.242;2023-08-07T03:28:48;101520.28;;;14.39;81.77
36692;BME280;22678;52.052;4.242;2023-08-07T03:31:14;101548.34;;;14.49;81.70
36692;BME280;22678;52.052;4.242;2023-08-07T03:33:39;101546.66;;;14.45;82.45
36692;BME280;22678;52.052;4.242;2023-08-07T03:36:05;101531.72;;;14.40;82.70
36692;BME280;22678;52.052;4.242;2023-08-07T03:38:30;101548.38;;;14.48;83.13
36692;BME280;22678;52.052;4.242;2023-08-07T03:40:55;101539.63;;;14.41;83.59
36692;BME280;22678;52.052;4.242;2023-08-07T03:43:21;101530.84;;;14.39;84.07
36692;BME280;22678;52.052;4.242;2023-08-07T03:45:46;101519.47;;;14.34;84.15
36692;BME280;22678;52.052;4.242;2023-08-07T03:48:12;101532.47;;;14.49;84.53
36692;BME280;22678;52.052;4.242;2023-08-07T03:50:37;101508.84;;;14.37;84.69
36692;BME280;22678;52.052;4.242;2023-08-07T03:53:04;101537.63;;;14.59;84.47
36692;BME280;22678;52.052;4.242;2023-08-07T03:55:31;101520.13;;;14.48;84.70
36692;BME280;22678;52.052;4.242;2023-08-07T03:57:57;101518.38;;;14.50;84.50
36692;BME280;22678;52.052;4.242;2023-08-07T04:00:22;101528.84;;;14.57;84.25
36692;BME280;22678;52.052;4.242;2023-08-07T04:02:47;101532.38;;;14.55;83.78
36692;BME280;22678;52.052;4.242;2023-08-07T04:05:13;101546.44;;;14.64;83.17
36692;BME280;22678;52.052;4.242;2023-08-07T04:07:38;101522.72;;;14.51;82.64
36692;BME280;22678;52.052;4.242;2023-08-07T04:10:04;101536.75;;;14.60;82.39
36692;BME280;22678;52.052;4.242;2023-08-07T04:12:29;101529.75;;;14.55;81.87
36692;BME280;22678;52.052;4.242;2023-08-07T04:14:54;101538.50;;;14.61;81.58
36692;BME280;22678;52.052;4.242;2023-08-07T04:17:20;101543.78;;;14.65;81.12
36692;BME280;22678;52.052;4.242;2023-08-07T04:19:45;101544.59;;;14.69;80.64
36692;BME280;22678;52.052;4.242;2023-08-07T04:22:11;101546.44;;;14.64;80.14
36692;BME280;22678;52.052;4.242;2023-08-07T04:24:36;101519.25;;;14.49;79.48
36692;BME280;22678;52.052;4.242;2023-08-07T04:27:01;101542.00;;;14.66;79.04
36692;BME280;22678;52.052;4.242;2023-08-07T04:29:28;101547.25;;;14.67;78.47
36692;BME280;22678;52.052;4.242;2023-08-07T04:31:53;101545.50;;;14.68;77.87
36692;BME280;22678;52.052;4.242;2023-08-07T04:34:18;101564.00;;;14.71;77.39
36692;BME280;22678;52.052;4.242;2023-08-07T04:36:44;101555.19;;;14.69;76.99
36692;BME280;22678;52.052;4.242;2023-08-07T04:39:09;101538.44;;;14.68;76.57
36692;BME280;22678;52.052;4.242;2023-08-07T04:41:34;101552.53;;;14.69;76.04
36692;BME280;22678;52.052;4.242;2023-08-07T04:44:00;101573.66;;;14.72;75.48
36692;BME280;22678;52.052;4.242;2023-08-07T04:46:25;101561.38;;;14.69;75.35
36692;BME280;22678;52.052;4.242;2023-08-07T04:48:51;101537.69;;;14.55;74.93
36692;BME280;22678;52.052;4.242;2023-08-07T04:51:16;101540.31;;;14.57;74.81
36692;BME280;22678;52.052;4.242;2023-08-07T04:53:41;101546.44;;;14.61;74.71
36692;BME280;22678;52.052;4.242;2023-08-07T04:56:07;101558.78;;;14.63;74.81
36692;BME280;22678;52.052;4.242;2023-08-07T04:58:32;101580.66;;;14.76;74.95
36692;BME280;22678;52.052;4.242;2023-08-07T05:00:58;101560.53;;;14.64;75.01
36692;BME280;22678;52.052;4.242;2023-08-07T05:03:24;101553.50;;;14.62;74.73
36692;BME280;22678;52.052;4.242;2023-08-07T05:05:50;101555.28;;;14.63;74.67
36692;BME280;22678;52.052;4.242;2023-08-07T05:08:16;101565.72;;;14.72;74.60
36692;BME280;22678;52.052;4.242;2023-08-07T05:10:41;101577.13;;;14.79;74.67
36692;BME280;22678;52.052;4.242;2023-08-07T05:13:07;101574.50;;;14.77;74.32
36692;BME280;22678;52.052;4.242;2023-08-07T05:15:32;101577.97;;;14.79;74.05
36692;BME280;22678;52.052;4.242;2023-08-07T05:17:57;101577.97;;;14.81;74.10
36692;BME280;22678;52.052;4.242;2023-08-07T05:20:23;101589.34;;;14.87;74.06
36692;BME280;22678;52.052;4.242;2023-08-07T05:22:49;101598.22;;;14.85;73.87
36692;BME280;22678;52.052;4.242;2023-08-07T05:25:15;101585.84;;;14.85;74.10
36692;BME280;22678;52.052;4.242;2023-08-07T05:27:44;101600.72;;;14.94;73.67
36692;BME280;22678;52.052;4.242;2023-08-07T05:30:10;101581.38;;;14.91;74.03
36692;BME280;22678;52.052;4.242;2023-08-07T05:32:36;101577.91;;;14.87;74.20
36692;BME280;22678;52.052;4.242;2023-08-07T05:35:05;101583.19;;;14.85;74.37
36692;BME280;22678;52.052;4.242;2023-08-07T05:37:30;101592.75;;;14.96;74.34
36692;BME280;22678;52.052;4.242;2023-08-07T05:39:57;101606.78;;;15.04;74.44
36692;BME280;22678;52.052;4.242;2023-08-07T05:42:22;101605.88;;;15.05;74.42
36692;BME280;22678;52.052;4.242;2023-08-07T05:44:48;101612.00;;;15.09;74.14
36692;BME280;22678;52.052;4.242;2023-08-07T05:47:13;101575.13;;;14.95;74.27
36692;BME280;22678;52.052;4.242;2023-08-07T05:49:38;101594.31;;;15.12;74.18
36692;BME280;22678;52.052;4.242;2023-08-07T05:52:04;101605.72;;;15.14;74.48
36692;BME280;22678;52.052;4.242;2023-08-07T05:54:31;101617.94;;;15.24;74.59
36692;BME280;22678;52.052;4.242;2023-08-07T05:56:56;101606.47;;;15.24;73.86
36692;BME280;22678;52.052;4.242;2023-08-07T05:59:21;101598.47;;;15.29;73.37
36692;BME280;22678;52.052;4.242;2023-08-07T06:01:47;101605.44;;;15.34;73.01
36692;BME280;22678;52.052;4.242;2023-08-07T06:04:12;101622.84;;;15.51;73.14
36692;BME280;22678;52.052;4.242;2023-08-07T06:06:37;101612.25;;;15.49;72.63
36692;BME280;22678;52.052;4.242;2023-08-07T06:09:04;101607.69;;;15.57;72.62
36692;BME280;22678;52.052;4.242;2023-08-07T06:11:31;101615.56;;;15.64;72.12
36692;BME280;22678;52.052;4.242;2023-08-07T06:13:58;101599.66;;;15.64;72.15
36692;BME280;22678;52.052;4.242;2023-08-07T06:16:23;101626.75;;;15.84;72.21
36692;BME280;22678;52.052;4.242;2023-08-07T06:18:48;101629.28;;;15.90;71.95
36692;BME280;22678;52.052;4.242;2023-08-07T06:21:14;101631.97;;;15.87;71.52
36692;BME280;22678;52.052;4.242;2023-08-07T06:23:39;101638.09;;;15.91;71.28
36692;BME280;22678;52.052;4.242;2023-08-07T06:26:04;101617.88;;;15.84;71.30
36692;BME280;22678;52.052;4.242;2023-08-07T06:28:33;101626.75;;;15.84;71.20
36692;BME280;22678;52.052;4.242;2023-08-07T06:31:10;101624.03;;;15.87;70.80
36692;BME280;22678;52.052;4.242;2023-08-07T06:33:36;101637.16;;;15.95;70.84
36692;BME280;22678;52.052;4.242;2023-08-07T06:36:02;101629.34;;;15.87;70.67
36692;BME280;22678;52.052;4.242;2023-08-07T06:38:28;101630.00;;;15.99;70.79
36692;BME280;22678;52.052;4.242;2023-08-07T06:40:54;101622.78;;;16.07;69.99
36692;BME280;22678;52.052;4.242;2023-08-07T06:43:19;101660.75;;;16.09;69.42
36692;BME280;22678;52.052;4.242;2023-08-07T06:45:51;101637.06;;;16.00;69.13
36692;BME280;22678;52.052;4.242;2023-08-07T06:48:17;101636.88;;;16.09;68.13
36692;BME280;22678;52.052;4.242;2023-08-07T06:50:43;101647.22;;;16.24;67.66
36692;BME280;22678;52.052;4.242;2023-08-07T06:53:08;101638.41;;;16.24;66.89
36692;BME280;22678;52.052;4.242;2023-08-07T06:55:33;101640.97;;;16.28;66.36
36692;BME280;22678;52.052;4.242;2023-08-07T06:57:59;101644.19;;;16.43;66.63
36692;BME280;22678;52.052;4.242;2023-08-07T07:00:24;101636.72;;;16.62;65.67
36692;BME280;22678;52.052;4.242;2023-08-07T07:02:50;101633.28;;;16.58;65.26
36692;BME280;22678;52.052;4.242;2023-08-07T07:05:15;101655.81;;;16.81;65.42
36692;BME280;22678;52.052;4.242;2023-08-07T07:07:40;101650.28;;;16.93;64.96
36692;BME280;22678;52.052;4.242;2023-08-07T07:10:06;101656.94;;;17.13;65.01
36692;BME280;22678;52.052;4.242;2023-08-07T07:12:31;101653.53;;;17.08;64.34
36692;BME280;22678;52.052;4.242;2023-08-07T07:14:57;101666.84;;;17.05;63.86
36692;BME280;22678;52.052;4.242;2023-08-07T07:17:22;101666.38;;;16.84;63.52
36692;BME280;22678;52.052;4.242;2023-08-07T07:19:48;101671.03;;;16.74;63.84
36692;BME280;22678;52.052;4.242;2023-08-07T07:22:13;101660.09;;;16.90;63.90
36692;BME280;22678;52.052;4.242;2023-08-07T07:24:38;101650.69;;;17.15;63.83
36692;BME280;22678;52.052;4.242;2023-08-07T07:27:04;101647.00;;;17.21;63.16
36692;BME280;22678;52.052;4.242;2023-08-07T07:29:29;101668.28;;;17.21;62.84
36692;BME280;22678;52.052;4.242;2023-08-07T07:31:56;101665.09;;;17.05;62.78
36692;BME280;22678;52.052;4.242;2023-08-07T07:34:21;101666.44;;;17.23;63.15
36692;BME280;22678;52.052;4.242;2023-08-07T07:36:47;101678.78;;;17.63;63.08
36692;BME280;22678;52.052;4.242;2023-08-07T07:39:12;101669.38;;;17.86;62.72
36692;BME280;22678;52.052;4.242;2023-08-07T07:41:38;101662.34;;;18.18;62.31
36692;BME280;22678;52.052;4.242;2023-08-07T07:44:03;101676.41;;;18.56;60.41
36692;BME280;22678;52.052;4.242;2023-08-07T07:46:28;101690.28;;;18.67;59.46
36692;BME280;22678;52.052;4.242;2023-08-07T07:48:54;101690.03;;;18.45;58.73
36692;BME280;22678;52.052;4.242;2023-08-07T07:51:21;101701.72;;;18.39;58.80
36692;BME280;22678;52.052;4.242;2023-08-07T07:53:47;101675.53;;;18.24;58.41
36692;BME280;22678;52.052;4.242;2023-08-07T07:56:12;101685.56;;;18.13;58.98
36692;BME280;22678;52.052;4.242;2023-08-07T07:58:37;101683.34;;;18.30;58.50
36692;BME280;22678;52.052;4.242;2023-08-07T08:01:03;101681.09;;;18.48;58.33
36692;BME280;22678;52.052;4.242;2023-08-07T08:03:28;101620.97;;;18.39;57.82
36692;BME280;22678;52.052;4.242;2023-08-07T08:05:54;101703.47;;;19.03;57.22
36692;BME280;22678;52.052;4.242;2023-08-07T08:08:19;101715.00;;;19.34;56.31
36692;BME280;22678;52.052;4.242;2023-08-07T08:10:45;101719.78;;;19.52;55.82
36692;BME280;22678;52.052;4.242;2023-08-07T08:13:12;101704.34;;;19.62;54.89
36692;BME280;22678;52.052;4.242;2023-08-07T08:15:38;101718.22;;;19.73;53.55
36692;BME280;22678;52.052;4.242;2023-08-07T08:18:03;101715.16;;;19.86;53.12
36692;BME280;22678;52.052;4.242;2023-08-07T08:20:28;101724.31;;;20.05;53.27
36692;BME280;22678;52.052;4.242;2023-08-07T08:22:56;101707.97;;;20.15;52.69
36692;BME280;22678;52.052;4.242;2023-08-07T08:25:21;101730.75;;;20.25;52.67
36692;BME280;22678;52.052;4.242;2023-08-07T08:27:46;101699.63;;;20.24;52.29
36692;BME280;22678;52.052;4.242;2023-08-07T08:30:12;101726.41;;;20.47;52.35
36692;BME280;22678;52.052;4.242;2023-08-07T08:32:38;101722.34;;;20.61;51.88
36692;BME280;22678;52.052;4.242;2023-08-07T08:35:04;101748.94;;;20.91;51.45
36692;BME280;22678;52.052;4.242;2023-08-07T08:37:31;101746.94;;;20.96;51.10
36692;BME280;22678;52.052;4.242;2023-08-07T08:39:56;101754.06;;;20.97;51.02
36692;BME280;22678;52.052;4.242;2023-08-07T08:42:22;101756.81;;;20.70;50.85
36692;BME280;22678;52.052;4.242;2023-08-07T08:44:52;101749.59;;;20.47;51.23
36692;BME280;22678;52.052;4.242;2023-08-07T08:47:18;101738.09;;;20.18;51.74
36692;BME280;22678;52.052;4.242;2023-08-07T08:50:07;101755.34;;;20.08;51.46
36692;BME280;22678;52.052;4.242;2023-08-07T08:52:33;101765.69;;;20.19;51.40
36692;BME280;22678;52.052;4.242;2023-08-07T08:54:58;101752.72;;;20.33;50.48
36692;BME280;22678;52.052;4.242;2023-08-07T08:57:25;101755.47;;;20.57;50.54
36692;BME280;22678;52.052;4.242;2023-08-07T08:59:52;101738.84;;;20.74;50.30
36692;BME280;22678;52.052;4.242;2023-08-07T09:02:17;101752.66;;;20.87;50.22
36692;BME280;22678;52.052;4.242;2023-08-07T09:04:44;101749.25;;;20.81;50.40
36692;BME280;22678;52.052;4.242;2023-08-07T09:07:09;101751.84;;;20.58;49.96
36692;BME280;22678;52.052;4.242;2023-08-07T09:09:35;101760.91;;;20.54;49.69
36692;BME280;22678;52.052;4.242;2023-08-07T09:12:02;101776.16;;;20.77;49.71
36692;BME280;22678;52.052;4.242;2023-08-07T09:14:30;101765.19;;;20.85;49.01
36692;BME280;22678;52.052;4.242;2023-08-07T09:17:00;101751.13;;;20.79;49.04
36692;BME280;22678;52.052;4.242;2023-08-07T09:19:27;101787.31;;;21.13;48.76
36692;BME280;22678;52.052;4.242;2023-08-07T09:21:52;101769.13;;;21.23;47.47
36692;BME280;22678;52.052;4.242;2023-08-07T09:24:18;101757.53;;;21.23;47.50
36692;BME280;22678;52.052;4.242;2023-08-07T09:26:46;101775.56;;;21.41;47.88
36692;BME280;22678;52.052;4.242;2023-08-07T09:29:12;101763.28;;;21.59;48.49
36692;BME280;22678;52.052;4.242;2023-08-07T09:31:39;101765.41;;;21.73;47.77
36692;BME280;22678;52.052;4.242;2023-08-07T09:34:04;101770.38;;;21.82;46.59
36692;BME280;22678;52.052;4.242;2023-08-07T09:36:31;101757.13;;;21.79;47.02
36692;BME280;22678;52.052;4.242;2023-08-07T09:39:00;101781.09;;;22.04;47.27
36692;BME280;22678;52.052;4.242;2023-08-07T09:41:25;101761.16;;;21.90;46.81
36692;BME280;22678;52.052;4.242;2023-08-07T09:43:52;101779.34;;;21.81;47.77
36692;BME280;22678;52.052;4.242;2023-08-07T09:46:18;101773.13;;;21.81;47.76
36692;BME280;22678;52.052;4.242;2023-08-07T09:48:44;101765.03;;;21.82;46.97
36692;BME280;22678;52.052;4.242;2023-08-07T09:51:10;101745.47;;;21.80;45.79
36692;BME280;22678;52.052;4.242;2023-08-07T09:53:35;101750.19;;;21.96;45.96
36692;BME280;22678;52.052;4.242;2023-08-07T09:56:01;101791.34;;;22.37;45.79
36692;BME280;22678;52.052;4.242;2023-08-07T09:58:46;101776.16;;;22.38;45.32
36692;BME280;22678;52.052;4.242;2023-08-07T10:01:15;101798.59;;;22.56;45.22
36692;BME280;22678;52.052;4.242;2023-08-07T10:03:41;101794.44;;;22.69;44.33
36692;BME280;22678;52.052;4.242;2023-08-07T10:06:07;101774.97;;;22.64;43.74
36692;BME280;22678;52.052;4.242;2023-08-07T10:08:33;101764.47;;;22.60;43.82
36692;BME280;22678;52.052;4.242;2023-08-07T10:11:01;101745.72;;;22.60;44.75
36692;BME280;22678;52.052;4.242;2023-08-07T10:13:27;101768.47;;;22.70;44.74
36692;BME280;22678;52.052;4.242;2023-08-07T10:15:53;101750.94;;;22.63;44.51
36692;BME280;22678;52.052;4.242;2023-08-07T10:18:19;101741.81;;;22.67;43.31
36692;BME280;22678;52.052;4.242;2023-08-07T10:20:46;101739.81;;;22.72;42.84
36692;BME280;22678;52.052;4.242;2023-08-07T10:23:12;101741.00;;;22.85;43.47
36692;BME280;22678;52.052;4.242;2023-08-07T10:25:41;101805.31;;;23.26;42.13
36692;BME280;22678;52.052;4.242;2023-08-07T10:28:13;101798.88;;;23.31;42.61
36692;BME280;22678;52.052;4.242;2023-08-07T10:30:40;101772.66;;;23.17;42.26
36692;BME280;22678;52.052;4.242;2023-08-07T10:33:07;101716.03;;;22.83;42.92
36692;BME280;22678;52.052;4.242;2023-08-07T10:35:34;101746.97;;;23.11;42.70
36692;BME280;22678;52.052;4.242;2023-08-07T10:38:07;101764.91;;;23.30;42.92
36692;BME280;22678;52.052;4.242;2023-08-07T10:41:14;101814.31;;;23.64;42.48
36692;BME280;22678;52.052;4.242;2023-08-07T10:43:43;101799.06;;;23.64;42.26
36692;BME280;22678;52.052;4.242;2023-08-07T10:46:11;101811.03;;;23.76;41.86
36692;BME280;22678;52.052;4.242;2023-08-07T10:48:38;101810.78;;;23.80;41.69
36692;BME280;22678;52.052;4.242;2023-08-07T10:51:04;101797.59;;;23.76;41.79
36692;BME280;22678;52.052;4.242;2023-08-07T10:53:31;101801.09;;;23.78;41.58
36692;BME280;22678;52.052;4.242;2023-08-07T10:56:01;101792.06;;;23.79;40.83
36692;BME280;22678;52.052;4.242;2023-08-07T10:58:31;101813.78;;;23.93;41.08
36692;BME280;22678;52.052;4.242;2023-08-07T11:01:16;101811.91;;;24.13;40.41
36692;BME280;22678;52.052;4.242;2023-08-07T11:03:49;101792.91;;;24.18;40.36
36692;BME280;22678;52.052;4.242;2023-08-07T11:06:16;101795.34;;;24.22;40.62
36692;BME280;22678;52.052;4.242;2023-08-07T11:08:42;101814.19;;;24.40;41.22
36692;BME280;22678;52.052;4.242;2023-08-07T11:11:07;101812.75;;;24.50;41.54
36692;BME280;22678;52.052;4.242;2023-08-07T11:13:33;101822.72;;;24.48;41.51
36692;BME280;22678;52.052;4.242;2023-08-07T11:16:00;101818.59;;;24.58;42.01
36692;BME280;22678;52.052;4.242;2023-08-07T11:18:27;101804.56;;;24.71;41.88
36692;BME280;22678;52.052;4.242;2023-08-07T11:20:54;101824.94;;;24.92;42.04
36692;BME280;22678;52.052;4.242;2023-08-07T11:23:24;101801.16;;;24.67;41.96
36692;BME280;22678;52.052;4.242;2023-08-07T11:25:51;101786.97;;;24.46;42.07
36692;BME280;22678;52.052;4.242;2023-08-07T11:28:21;101812.34;;;24.40;42.61
36692;BME280;22678;52.052;4.242;2023-08-07T11:30:51;101800.81;;;24.38;42.74
36692;BME280;22678;52.052;4.242;2023-08-07T11:33:23;101783.34;;;24.29;42.20
36692;BME280;22678;52.052;4.242;2023-08-07T11:35:50;101800.44;;;24.46;42.21
36692;BME280;22678;52.052;4.242;2023-08-07T11:38:38;101795.59;;;24.70;42.70
36692;BME280;22678;52.052;4.242;2023-08-07T11:41:05;101779.56;;;24.69;42.86
36692;BME280;22678;52.052;4.242;2023-08-07T11:43:32;101799.94;;;24.90;42.73
36692;BME280;22678;52.052;4.242;2023-08-07T11:45:59;101815.06;;;25.09;42.76
36692;BME280;22678;52.052;4.242;2023-08-07T11:48:26;101814.84;;;25.13;42.37
36692;BME280;22678;52.052;4.242;2023-08-07T11:50:53;101810.66;;;25.08;42.27
36692;BME280;22678;52.052;4.242;2023-08-07T11:53:22;101796.56;;;25.02;42.95
36692;BME280;22678;52.052;4.242;2023-08-07T11:55:58;101806.50;;;25.18;41.74
36692;BME280;22678;52.052;4.242;2023-08-07T11:58:25;101815.81;;;25.28;42.16
36692;BME280;22678;52.052;4.242;2023-08-07T12:00:51;101817.44;;;25.15;42.35
36692;BME280;22678;52.052;4.242;2023-08-07T12:03:31;101805.09;;;25.11;43.10
36692;BME280;22678;52.052;4.242;2023-08-07T12:05:58;101798.16;;;25.07;43.31
36692;BME280;22678;52.052;4.242;2023-08-07T12:08:24;101791.41;;;25.15;43.26
36692;BME280;22678;52.052;4.242;2023-08-07T12:10:53;101810.72;;;25.40;43.02
36692;BME280;22678;52.052;4.242;2023-08-07T12:13:25;101811.97;;;25.34;41.72
36692;BME280;22678;52.052;4.242;2023-08-07T12:15:55;101813.47;;;25.22;41.69
36692;BME280;22678;52.052;4.242;2023-08-07T12:18:22;101781.66;;;25.13;41.94
36692;BME280;22678;52.052;4.242;2023-08-07T12:20:51;101808.41;;;25.16;42.16
36692;BME280;22678;52.052;4.242;2023-08-07T12:23:20;101808.13;;;25.05;42.79
36692;BME280;22678;52.052;4.242;2023-08-07T12:25:47;101808.47;;;24.98;42.54
36692;BME280;22678;52.052;4.242;2023-08-07T12:28:13;101796.31;;;24.74;42.07
36692;BME280;22678;52.052;4.242;2023-08-07T12:30:39;101797.81;;;24.44;42.15
36692;BME280;22678;52.052;4.242;2023-08-07T12:33:05;101820.56;;;24.20;44.62
36692;BME280;22678;52.052;4.242;2023-08-07T12:35:31;101828.22;;;23.91;46.97
36692;BME280;22678;52.052;4.242;2023-08-07T12:37:57;101815.16;;;23.64;49.48
36692;BME280;22678;52.052;4.242;2023-08-07T12:40:22;101822.59;;;23.40;50.44
36692;BME280;22678;52.052;4.242;2023-08-07T12:42:49;101807.84;;;23.30;52.03
36692;BME280;22678;52.052;4.242;2023-08-07T12:45:15;101814.16;;;23.48;52.60
36692;BME280;22678;52.052;4.242;2023-08-07T12:47:41;101811.31;;;23.70;52.79
36692;BME280;22678;52.052;4.242;2023-08-07T12:50:07;101769.75;;;23.59;52.28
36692;BME280;22678;52.052;4.242;2023-08-07T12:52:33;101811.91;;;24.13;52.07
36692;BME280;22678;52.052;4.242;2023-08-07T12:54:59;101817.97;;;24.36;51.91
36692;BME280;22678;52.052;4.242;2023-08-07T12:57:25;101811.00;;;24.49;48.41